< Cyclone 200509 2005 Season Cyclone 200511 >
Cyclone 200510 (KERRY)
General InformationTrack Information on Google MapsDetailed Wind InformationList of All Images || ResourceGoogle EarthGE AnimationAtom FeedGeoJSON
Detalied Best Track (Time Zone = UTC)
Year Month Day Hour Lat. Long. Pressure (hPa) Wind (kt) Class Image Chart
2005 1 8 12 -18.1 159.8 970 65 5 Image --
2005 1 8 18 -18.1 159.5 970 65 5 Image --
2005 1 9 00 -18.0 159.4 970 65 5 Image --
2005 1 9 06 -17.9 159.1 965 70 5 Image --
2005 1 9 12 -17.9 159.2 955 80 5 Image --
2005 1 9 18 -18.0 159.1 955 80 5 Image --
2005 1 10 00 -18.0 159.1 955 80 5 Image --
2005 1 10 06 -18.1 159.0 955 80 5 Image --
2005 1 10 12 -18.2 159.0 955 80 5 Image --
2005 1 10 18 -18.5 159.0 965 70 5 Image --
2005 1 11 00 -19.1 159.1 970 65 5 Image --
2005 1 11 06 -19.7 159.3 975 60 4 Image --
2005 1 11 12 -20.0 159.9 980 55 4 Image --
2005 1 11 18 -20.2 160.1 980 55 4 Image --
2005 1 12 00 -20.5 160.2 985 50 4 Image --
2005 1 12 06 -20.9 160.3 987 45 3 Image --
2005 1 12 12 -21.5 160.5 987 45 3 Image --
2005 1 12 18 -22.1 160.3 987 45 3 Image --
2005 1 13 00 -22.5 160.0 987 45 3 Image --
2005 1 13 06 -23.0 159.9 987 45 3 Image --
2005 1 13 12 -23.6 159.4 992 40 3 Image --
2005 1 13 18 -24.1 158.9 998 35 3 Image --
2005 1 14 00 -24.5 158.2 1000 35 3 Image --
2005 1 14 06 -24.9 158.2 1002 35 3 Image --
2005 1 14 12 -25.7 158.0 1002 35 3 Image --
2005 1 14 18 -26.2 157.6 1002 35 3 Image --
2005 1 15 00 -26.6 157.0 1002 35 3 Image --
2005 1 15 06 -26.8 156.6 1002 35 3 Image --
2005 1 15 12 -27.0 156.3 1002 35 3 Image --
2005 1 15 18 -27.3 156.1 998 40 3 Image --
2005 1 16 00 -27.7 156.1 998 40 3 Image --
2005 1 16 06 -27.9 156.6 1002 35 3 Image --
2005 1 16 12 -28.0 157.0 1002 35 3 Image --
2005 1 16 18 -28.0 157.4 1002 35 3 Image --
2005 1 17 00 -28.0 157.9 1002 35 3 Image --
2005 1 17 06 -27.9 158.3 1005 30 2 Image --
2005 1 17 12 -27.7 158.2 1006 30 2 Image --
2005 1 17 18 -27.5 158.0 1006 30 2 Image --
2005 1 18 00 -27.4 157.8 1006 30 2 Image --
< Cyclone 200509 2005 Season Cyclone 200511 >

Help